Time;durP1;ratioP1;P1;durP2;ratioP2;P2;SDS_P1;SDS_P2;PMS_P1;PMS_P2;Temp;Humidity;BMP_temperature;BMP_pressure;BME280_temperature;BME280_humidity;BME280_pressure;Samples;Min_cycle;Max_cycle;Signal;HPM_P1;HPM_P2
2024/01/15 00:00:04;;;;;;;29.83;18.17;;;;;;;2.05;100.00;97642.72;5050805;28;20048;-81
2024/01/15 00:02:30;;;;;;;35.78;20.25;;;;;;;2.08;100.00;97645.16;5053681;28;20017;-81
2024/01/15 00:04:55;;;;;;;34.70;21.60;;;;;;;1.80;100.00;97601.88;5053250;28;20017;-81
2024/01/15 00:07:20;;;;;;;43.28;24.90;;;;;;;1.86;100.00;97606.75;5053325;28;20029;-81
2024/01/15 00:09:46;;;;;;;36.25;21.77;;;;;;;1.88;100.00;97596.41;5052899;28;20368;-80
2024/01/15 00:12:11;;;;;;;40.00;22.10;;;;;;;1.98;100.00;97611.34;5053164;28;20021;-80
2024/01/15 00:14:37;;;;;;;41.05;22.58;;;;;;;1.70;100.00;97568.09;5053166;28;20036;-81
2024/01/15 00:17:02;;;;;;;40.10;22.08;;;;;;;1.87;100.00;97599.88;5052963;28;20017;-80
2024/01/15 00:19:28;;;;;;;36.55;23.08;;;;;;;1.80;100.00;97596.75;5053056;28;20029;-81
2024/01/15 00:21:53;;;;;;;40.67;24.27;;;;;;;1.83;100.00;97585.53;5052883;28;20025;-81
2024/01/15 00:24:19;;;;;;;38.00;22.88;;;;;;;2.05;100.00;97619.59;5053082;28;20112;-80
2024/01/15 00:26:44;;;;;;;39.67;22.77;;;;;;;2.06;100.00;97617.84;5053078;28;20044;-81
2024/01/15 00:29:10;;;;;;;40.42;23.05;;;;;;;2.08;100.00;97611.75;5052848;28;20502;-81
2024/01/15 00:31:35;;;;;;;36.17;21.08;;;;;;;1.93;100.00;97590.16;5052883;28;20024;-81
2024/01/15 00:34:01;;;;;;;28.90;17.98;;;;;;;1.82;100.00;97563.34;5052433;28;20021;-81
2024/01/15 00:36:27;;;;;;;26.65;17.83;;;;;;;1.93;100.00;97590.16;5051908;28;20118;-81
2024/01/15 00:38:53;;;;;;;26.75;18.58;;;;;;;1.89;100.00;97586.06;5053094;28;20028;-81
2024/01/15 00:41:18;;;;;;;29.70;20.23;;;;;;;1.98;100.00;97592.53;5053108;28;20024;-81
2024/01/15 00:43:45;;;;;;;33.08;21.42;;;;;;;1.84;100.00;97556.38;5052775;28;20025;-81
2024/01/15 00:46:10;;;;;;;35.42;22.88;;;;;;;2.06;100.00;97592.19;5052992;28;20029;-81
2024/01/15 00:48:36;;;;;;;50.70;32.47;;;;;;;2.06;100.00;97580.16;5052412;28;20112;-81
2024/01/15 00:51:01;;;;;;;54.53;33.10;;;;;;;1.82;100.00;97540.22;5052429;28;20025;-81
2024/01/15 00:53:27;;;;;;;36.40;22.55;;;;;;;1.85;100.00;97546.03;5052956;28;20028;-81
2024/01/15 00:55:52;;;;;;;37.33;23.20;;;;;;;2.05;100.00;97572.56;5052965;28;20043;-81
2024/01/15 00:58:19;;;;;;;37.47;23.40;;;;;;;2.06;100.00;97563.94;5052919;28;20027;-80
2024/01/15 01:00:44;;;;;;;41.88;27.63;;;;;;;1.86;100.00;97532.31;5052918;28;20018;-80
2024/01/15 01:03:09;;;;;;;51.33;31.85;;;;;;;2.03;100.00;97557.22;5052391;28;20024;-80
2024/01/15 01:05:35;;;;;;;44.70;29.33;;;;;;;1.77;100.00;97519.91;5052693;28;20013;-81
2024/01/15 01:08:00;;;;;;;45.47;28.75;;;;;;;1.76;100.00;97523.34;5052688;28;20033;-81
2024/01/15 01:10:26;;;;;;;45.67;28.27;;;;;;;1.88;100.00;97539.94;5052276;28;20500;-81
2024/01/15 01:12:52;;;;;;;43.85;26.20;;;;;;;1.91;100.00;97548.34;5052401;28;20045;-81
2024/01/15 01:15:18;;;;;;;69.90;37.70;;;;;;;1.67;100.00;97516.91;5052436;28;20128;-81
2024/01/15 01:17:44;;;;;;;81.68;45.80;;;;;;;1.76;100.00;97520.78;5052754;28;20051;-81
2024/01/15 01:20:10;;;;;;;85.63;45.70;;;;;;;1.92;100.00;97554.31;5052185;28;20511;-81
2024/01/15 01:22:36;;;;;;;66.72;35.75;;;;;;;1.84;100.00;97543.56;5052325;28;20364;-81
2024/01/15 01:25:01;;;;;;;54.08;30.58;;;;;;;1.86;100.00;97542.59;5052414;28;20047;-81
2024/01/15 01:27:27;;;;;;;86.13;40.08;;;;;;;1.63;100.00;97509.41;5052767;28;20445;-81
2024/01/15 01:29:52;;;;;;;86.43;43.00;;;;;;;1.68;100.00;97513.44;5052490;28;20021;-81
2024/01/15 01:32:18;;;;;;;91.47;49.58;;;;;;;1.83;100.00;97537.59;5052150;28;20107;-81
2024/01/15 01:34:43;;;;;;;97.50;47.33;;;;;;;1.77;100.00;97522.47;5052583;28;20090;-81
2024/01/15 01:37:12;;;;;;;63.88;31.38;;;;;;;1.54;100.00;97494.44;5052637;28;20075;-81
2024/01/15 01:39:37;;;;;;;40.20;22.98;;;;;;;1.60;100.00;97500.13;5052270;28;20536;-80
2024/01/15 01:42:03;;;;;;;49.88;27.58;;;;;;;1.61;100.00;97499.22;5052342;28;20103;-80
2024/01/15 01:44:28;;;;;;;80.50;45.03;;;;;;;1.82;100.00;97540.22;5051953;28;20441;-81
2024/01/15 01:46:54;;;;;;;67.47;37.67;;;;;;;1.65;100.00;97505.91;5052163;28;20099;-81
2024/01/15 01:49:19;;;;;;;71.50;37.92;;;;;;;1.60;100.00;97489.88;5051674;28;20040;-80
2024/01/15 01:51:47;;;;;;;60.45;31.42;;;;;;;1.83;100.00;97524.75;5051731;28;20024;-81
2024/01/15 01:54:13;;;;;;;59.85;29.63;;;;;;;1.85;100.00;97522.09;5051713;28;20444;-81
2024/01/15 01:56:40;;;;;;;39.40;22.80;;;;;;;1.69;100.00;97499.72;5052033;28;20063;-81
2024/01/15 01:59:07;;;;;;;56.40;31.75;;;;;;;1.59;100.00;97487.38;5051717;28;20029;-81
2024/01/15 02:01:33;;;;;;;37.70;22.08;;;;;;;1.62;100.00;97474.41;5052553;28;20016;-81
2024/01/15 02:03:58;;;;;;;31.77;18.95;;;;;;;1.83;100.00;97517.06;5052229;28;20036;-81
2024/01/15 02:06:24;;;;;;;47.47;26.52;;;;;;;1.59;100.00;97477.09;5056197;28;20097;-81
2024/01/15 02:08:50;;;;;;;33.28;20.30;;;;;;;1.77;100.00;97496.81;5055885;28;20021;-81
2024/01/15 02:11:15;;;;;;;51.47;27.80;;;;;;;1.59;100.00;97466.84;5055131;28;20045;-81
2024/01/15 02:13:41;;;;;;;44.42;24.02;;;;;;;1.86;100.00;97510.97;5055703;28;20484;-81
2024/01/15 02:16:06;;;;;;;38.33;21.33;;;;;;;1.61;100.00;97457.34;5055572;28;20360;-80
2024/01/15 02:18:45;;;;;;;32.15;19.60;;;;;;;1.81;100.00;97493.19;5055574;28;20025;-81
2024/01/15 02:21:10;;;;;;;38.65;19.75;;;;;;;1.59;100.00;97451.44;5055285;28;20036;-81
2024/01/15 02:23:37;;;;;;;42.78;23.40;;;;;;;1.60;100.00;97453.09;5055723;28;20380;-81
2024/01/15 02:26:03;;;;;;;32.63;18.05;;;;;;;1.64;100.00;97452.88;5055238;28;20040;-81
2024/01/15 02:28:29;;;;;;;42.67;20.98;;;;;;;1.63;100.00;97456.38;5055497;28;20012;-81
2024/01/15 02:30:54;;;;;;;46.47;23.88;;;;;;;1.71;100.00;97467.09;5055450;28;20520;-81
2024/01/15 02:33:19;;;;;;;27.17;15.88;;;;;;;1.64;100.00;97444.34;5055080;28;20599;-81
2024/01/15 02:35:46;;;;;;;22.50;14.05;;;;;;;1.47;100.00;97407.47;5055155;28;20057;-81
2024/01/15 02:38:12;;;;;;;25.42;13.55;;;;;;;1.83;100.00;97462.31;5055371;28;20039;-81
2024/01/15 02:40:38;;;;;;;22.42;13.88;;;;;;;1.70;100.00;97436.41;5055307;28;20025;-80
2024/01/15 02:43:04;;;;;;;21.90;12.27;;;;;;;1.73;100.00;97441.41;5055186;28;20025;-80
2024/01/15 02:45:29;;;;;;;21.92;13.27;;;;;;;1.88;100.00;97460.38;5055355;28;20075;-81
2024/01/15 02:47:55;;;;;;;20.25;12.90;;;;;;;1.46;100.00;97389.59;5055735;28;20025;-81
2024/01/15 02:50:20;;;;;;;16.17;10.68;;;;;;;1.69;100.00;97420.19;5055016;28;20024;-81
2024/01/15 02:52:46;;;;;;;19.13;11.30;;;;;;;1.88;100.00;97447.53;5055165;28;20029;-80
2024/01/15 02:55:11;;;;;;;17.15;11.32;;;;;;;1.77;100.00;97430.09;5036219;28;20036;-80
2024/01/15 02:57:37;;;;;;;13.15;9.38;;;;;;;1.74;100.00;97422.53;5055275;28;20017;-81
2024/01/15 03:00:03;;;;;;;15.50;9.60;;;;;;;1.80;100.00;97429.91;5054926;28;20024;-80
2024/01/15 03:02:31;;;;;;;16.13;10.10;;;;;;;1.43;100.00;97375.22;5055340;28;20017;-80
2024/01/15 03:04:57;;;;;;;19.08;10.40;;;;;;;1.48;100.00;97385.25;5055086;28;20028;-80
2024/01/15 03:07:22;;;;;;;16.00;9.93;;;;;;;1.62;100.00;97405.97;5054920;28;20368;-80
2024/01/15 03:09:48;;;;;;;17.58;10.10;;;;;;;1.55;100.00;97386.59;5053251;28;20045;-80
2024/01/15 03:12:13;;;;;;;14.18;9.75;;;;;;;1.57;100.00;97384.81;5054452;28;20100;-80
2024/01/15 03:14:38;;;;;;;16.27;8.95;;;;;;;1.65;100.00;97399.88;5054797;28;20025;-80
2024/01/15 03:17:04;;;;;;;13.15;8.52;;;;;;;1.82;100.00;97429.88;5053494;28;20070;-80
2024/01/15 03:19:30;;;;;;;13.70;8.73;;;;;;;1.63;100.00;97401.66;5054687;28;20431;-80
2024/01/15 03:21:56;;;;;;;17.50;8.98;;;;;;;1.59;100.00;97398.41;5054706;28;20013;-80
2024/01/15 03:24:21;;;;;;;12.70;7.72;;;;;;;1.80;100.00;97429.91;5054491;28;20051;-80
2024/01/15 03:26:47;;;;;;;13.43;9.25;;;;;;;1.77;100.00;97419.81;5054410;28;20091;-80
2024/01/15 03:29:12;;;;;;;16.20;8.50;;;;;;;1.71;100.00;97405.53;5053878;28;20064;-80
2024/01/15 03:31:37;;;;;;;13.40;8.18;;;;;;;1.55;100.00;97381.47;5054289;28;20017;-80
2024/01/15 03:34:03;;;;;;;11.35;8.23;;;;;;;1.65;100.00;97394.72;5053953;28;20029;-79
2024/01/15 03:36:29;;;;;;;14.00;9.02;;;;;;;1.54;100.00;97373.88;5054071;28;20032;-80
2024/01/15 03:38:54;;;;;;;13.43;8.38;;;;;;;1.48;100.00;97367.28;5054283;28;20031;-80
2024/01/15 03:41:19;;;;;;;12.80;7.80;;;;;;;1.73;100.00;97398.59;5053922;28;20112;-80
2024/01/15 03:43:45;;;;;;;10.10;7.00;;;;;;;1.50;100.00;97361.19;5053974;28;20351;-80
2024/01/15 03:46:10;;;;;;;10.88;8.18;;;;;;;1.53;100.00;97362.78;5053780;28;20082;-80
2024/01/15 03:48:36;;;;;;;12.50;8.27;;;;;;;1.73;100.00;97390.91;5053956;28;20096;-80
2024/01/15 03:51:01;;;;;;;11.45;7.65;;;;;;;1.67;100.00;97393.75;5053864;28;20399;-80
2024/01/15 03:53:26;;;;;;;11.32;8.23;;;;;;;1.63;100.00;97374.25;5053782;28;20024;-80
2024/01/15 03:55:52;;;;;;;14.57;8.50;;;;;;;1.60;100.00;97365.88;5053930;28;20360;-80
2024/01/15 03:58:18;;;;;;;13.65;8.30;;;;;;;1.70;100.00;97377.38;5053543;28;20060;-80
2024/01/15 04:00:43;;;;;;;12.90;8.23;;;;;;;1.56;100.00;97349.81;5053498;28;20017;-80
2024/01/15 04:03:09;;;;;;;12.73;8.18;;;;;;;1.60;100.00;97358.16;5053419;28;20060;-80
2024/01/15 04:05:35;;;;;;;12.77;8.30;;;;;;;1.52;100.00;97347.44;5053601;28;20028;-80
2024/01/15 04:08:00;;;;;;;14.98;8.88;;;;;;;1.45;100.00;97341.78;5053406;28;20100;-80
2024/01/15 04:10:26;;;;;;;10.38;7.55;;;;;;;1.63;100.00;97364.00;5053022;28;20376;-80
2024/01/15 04:12:52;;;;;;;13.60;8.95;;;;;;;1.53;100.00;97344.00;5053711;28;20027;-80
2024/01/15 04:15:17;;;;;;;14.13;9.27;;;;;;;1.65;100.00;97358.81;5053544;28;20074;-80
2024/01/15 04:17:43;;;;;;;13.23;9.30;;;;;;;1.55;100.00;97339.59;5053674;28;20017;-80
2024/01/15 04:20:08;;;;;;;14.13;8.98;;;;;;;1.44;100.00;97332.44;5053306;28;20457;-80
2024/01/15 04:22:35;;;;;;;12.82;9.13;;;;;;;1.62;100.00;97351.25;5053224;28;20460;-80
2024/01/15 04:25:01;;;;;;;12.65;8.85;;;;;;;1.44;100.00;97324.75;5053410;28;20025;-80
2024/01/15 04:27:26;;;;;;;12.23;8.13;;;;;;;1.68;100.00;97353.50;5052347;28;20026;-80
2024/01/15 04:29:51;;;;;;;13.27;8.82;;;;;;;1.53;100.00;97332.00;5053226;28;20440;-80
2024/01/15 04:32:17;;;;;;;16.10;9.20;;;;;;;1.55;100.00;97335.31;5053219;28;20021;-80
2024/01/15 04:34:42;;;;;;;19.85;10.20;;;;;;;1.58;100.00;97350.56;5053124;28;20471;-80
2024/01/15 04:37:07;;;;;;;13.73;9.15;;;;;;;1.47;100.00;97330.53;5053375;28;20025;-80
2024/01/15 04:39:33;;;;;;;14.57;8.75;;;;;;;1.53;100.00;97331.16;5053095;28;20021;-80
2024/01/15 04:41:58;;;;;;;15.60;9.90;;;;;;;1.44;100.00;97311.91;5052848;28;20368;-80
2024/01/15 04:44:24;;;;;;;13.35;8.70;;;;;;;1.26;100.00;97282.81;5052749;28;20021;-80
2024/01/15 04:46:49;;;;;;;16.05;8.95;;;;;;;1.27;100.00;97296.50;5053168;28;20108;-80
2024/01/15 04:49:14;;;;;;;12.23;8.60;;;;;;;1.29;100.00;97298.06;5052494;28;20047;-80
2024/01/15 04:51:40;;;;;;;14.05;9.23;;;;;;;1.45;100.00;97321.25;5052644;28;20020;-80
2024/01/15 04:54:05;;;;;;;14.52;9.35;;;;;;;1.33;100.00;97299.56;5053259;28;20017;-80
2024/01/15 04:56:31;;;;;;;12.82;8.75;;;;;;;1.45;100.00;97316.97;5053397;28;20352;-80
2024/01/15 04:58:56;;;;;;;13.63;9.20;;;;;;;1.47;100.00;97327.13;5053021;28;20025;-80
2024/01/15 05:01:21;;;;;;;12.40;8.50;;;;;;;1.54;100.00;97343.09;5053359;28;20025;-80
2024/01/15 05:03:47;;;;;;;13.77;8.75;;;;;;;1.52;100.00;97332.03;5057032;28;20021;-80
2024/01/15 05:06:12;;;;;;;12.20;8.82;;;;;;;1.33;100.00;97306.44;5064136;28;20025;-80
2024/01/15 05:08:38;;;;;;;14.07;9.45;;;;;;;1.55;100.00;97344.72;5063388;28;20047;-79
2024/01/15 05:11:03;;;;;;;16.83;10.07;;;;;;;1.41;100.00;97312.88;5063937;28;20048;-80
2024/01/15 05:13:29;;;;;;;15.35;9.88;;;;;;;1.35;100.00;97317.44;5054533;28;20017;-80
2024/01/15 05:15:54;;;;;;;14.73;9.23;;;;;;;1.49;100.00;97346.69;5052592;28;20520;-80
2024/01/15 05:18:19;;;;;;;15.40;9.82;;;;;;;1.41;100.00;97314.63;5052343;28;20107;-79
2024/01/15 05:20:45;;;;;;;15.70;9.93;;;;;;;1.47;100.00;97332.25;5052844;28;20028;-79
2024/01/15 05:23:10;;;;;;;14.50;9.63;;;;;;;1.44;100.00;97327.31;5069754;28;20044;-79
2024/01/15 05:25:36;;;;;;;17.60;10.27;;;;;;;1.46;100.00;97326.31;5070172;28;20040;-79
2024/01/15 05:28:02;;;;;;;18.08;10.40;;;;;;;1.42;100.00;97342.75;5070073;28;20028;-79
2024/01/15 05:30:27;;;;;;;15.20;8.73;;;;;;;1.34;100.00;97344.84;5053141;28;20040;-79
2024/01/15 05:32:53;;;;;;;15.55;9.65;;;;;;;1.36;100.00;97337.91;5070097;28;20044;-79
2024/01/15 05:35:18;;;;;;;17.08;9.48;;;;;;;1.19;100.00;97304.53;5069713;28;20036;-79
2024/01/15 05:37:45;;;;;;;12.07;8.15;;;;;;;1.22;100.00;97317.19;5069958;28;20032;-79
2024/01/15 05:40:12;;;;;;;17.77;9.32;;;;;;;1.38;100.00;97337.84;5072266;28;20113;-79
2024/01/15 05:42:39;;;;;;;14.18;9.05;;;;;;;1.36;100.00;97331.97;5073645;28;20032;-79
2024/01/15 05:45:05;;;;;;;17.92;9.85;;;;;;;1.18;100.00;97306.28;5073650;28;20161;-79
2024/01/15 05:47:30;;;;;;;17.08;10.05;;;;;;;1.47;100.00;97352.78;5073802;28;20063;-79
2024/01/15 05:49:56;;;;;;;16.15;9.38;;;;;;;1.38;100.00;97348.09;5073698;28;20036;-79
2024/01/15 05:52:22;;;;;;;13.70;8.90;;;;;;;1.18;100.00;97301.16;5073683;28;20028;-79
2024/01/15 05:54:47;;;;;;;14.80;8.90;;;;;;;1.22;100.00;97312.91;5060253;28;20412;-79
2024/01/15 05:57:13;;;;;;;16.38;10.02;;;;;;;1.49;100.00;97344.13;5055934;28;20025;-79
2024/01/15 05:59:38;;;;;;;14.38;9.32;;;;;;;1.21;100.00;97303.53;5054602;28;20020;-79
2024/01/15 06:02:04;;;;;;;18.10;9.35;;;;;;;1.32;100.00;97312.47;5056205;28;20452;-79
2024/01/15 06:04:29;;;;;;;14.45;9.25;;;;;;;1.23;100.00;97312.00;5055714;28;20369;-79
2024/01/15 06:06:55;;;;;;;15.63;9.73;;;;;;;1.48;100.00;97364.72;5055934;28;20035;-79
2024/01/15 06:09:20;;;;;;;15.18;9.63;;;;;;;1.40;100.00;97372.78;5055241;28;20049;-79
2024/01/15 06:11:46;;;;;;;16.70;10.07;;;;;;;1.31;100.00;97355.25;5056029;28;20526;-79
2024/01/15 06:14:11;;;;;;;17.60;10.18;;;;;;;1.40;100.00;97356.56;5056079;28;20029;-79
2024/01/15 06:16:36;;;;;;;17.67;10.10;;;;;;;1.37;100.00;97349.81;5055822;28;20013;-79
2024/01/15 06:19:02;;;;;;;17.30;10.52;;;;;;;1.25;100.00;97347.81;5055787;28;20360;-79
2024/01/15 06:21:28;;;;;;;20.75;11.90;;;;;;;1.23;100.00;97344.50;5055743;28;20017;-79
2024/01/15 06:23:53;;;;;;;17.98;10.85;;;;;;;1.21;100.00;97342.00;5055575;28;20021;-79
2024/01/15 06:26:19;;;;;;;18.67;11.48;;;;;;;1.34;100.00;97375.59;5055867;28;20017;-79
2024/01/15 06:28:44;;;;;;;19.05;10.05;;;;;;;1.33;100.00;97381.66;5055061;28;20017;-79
2024/01/15 06:31:10;;;;;;;21.95;10.60;;;;;;;1.33;100.00;97368.81;5055171;28;20066;-79
2024/01/15 06:33:35;;;;;;;19.98;11.68;;;;;;;1.14;100.00;97350.91;5054781;28;20036;-79
2024/01/15 06:36:00;;;;;;;18.73;11.25;;;;;;;1.20;100.00;97366.00;5054992;28;20029;-79
2024/01/15 06:38:26;;;;;;;17.15;10.25;;;;;;;1.09;100.00;97344.28;5055300;28;20021;-79
2024/01/15 06:40:51;;;;;;;19.90;11.05;;;;;;;1.01;100.00;97344.63;5055297;28;20029;-79
2024/01/15 06:43:18;;;;;;;18.85;10.15;;;;;;;1.20;100.00;97366.00;5055217;28;20020;-79
2024/01/15 06:45:44;;;;;;;16.42;10.35;;;;;;;1.27;100.00;97379.38;5055176;28;20457;-79
2024/01/15 06:48:09;;;;;;;16.38;9.65;;;;;;;1.03;100.00;97350.53;5055269;28;20063;-79
2024/01/15 06:50:35;;;;;;;17.63;10.45;;;;;;;1.08;100.00;97371.66;5054473;28;20029;-79
2024/01/15 06:53:00;;;;;;;16.65;10.10;;;;;;;1.24;100.00;97397.44;5055041;28;20028;-80
2024/01/15 06:55:26;;;;;;;20.58;10.63;;;;;;;1.20;100.00;97383.09;5056523;28;20118;-79
2024/01/15 06:57:52;;;;;;;18.08;10.32;;;;;;;0.82;100.00;97347.19;5055496;28;20017;-79
2024/01/15 07:00:19;;;;;;;17.48;10.40;;;;;;;0.89;100.00;97389.59;5056944;28;20527;-79
2024/01/15 07:02:45;;;;;;;18.73;10.55;;;;;;;0.56;100.00;97358.59;5056073;28;20040;-79
2024/01/15 07:05:10;;;;;;;22.23;12.05;;;;;;;0.39;100.00;97343.94;5056159;28;20064;-79
2024/01/15 07:07:36;;;;;;;19.58;10.93;;;;;;;0.58;100.00;97394.38;5056318;28;20025;-79
2024/01/15 07:10:03;;;;;;;19.92;11.80;;;;;;;0.40;100.00;97393.44;5056329;28;20040;-79
2024/01/15 07:12:29;;;;;;;21.80;10.85;;;;;;;0.21;100.00;97363.47;5055874;28;20060;-79
2024/01/15 07:14:55;;;;;;;21.55;11.80;;;;;;;0.46;100.00;97399.13;5055612;28;20072;-79
2024/01/15 07:17:21;;;;;;;21.10;11.77;;;;;;;0.07;100.00;97345.28;5055035;28;20029;-79
2024/01/15 07:19:46;;;;;;;20.08;11.70;;;;;;;0.36;100.00;97381.66;5055232;28;20464;-80
2024/01/15 07:22:12;;;;;;;25.17;12.63;;;;;;;0.20;100.00;97358.41;5055706;28;20074;-80
2024/01/15 07:24:38;;;;;;;22.00;12.05;;;;;;;0.45;100.00;97399.19;5054818;28;20021;-80
2024/01/15 07:27:04;;;;;;;17.30;11.38;;;;;;;0.44;100.00;97388.13;5054782;28;20017;-79
2024/01/15 07:29:30;;;;;;;22.33;13.18;;;;;;;0.41;100.00;97401.03;5054875;28;20021;-79
2024/01/15 07:31:55;;;;;;;22.88;13.00;;;;;;;0.16;100.00;97354.31;5054522;28;20464;-80
2024/01/15 07:34:22;;;;;;;19.75;12.57;;;;;;;0.33;100.00;97386.91;5054536;28;20031;-80
2024/01/15 07:36:47;;;;;;;21.55;12.77;;;;;;;0.21;100.00;97363.47;5055415;28;20402;-79
2024/01/15 07:39:13;;;;;;;23.25;13.90;;;;;;;0.49;100.00;97403.28;5054385;28;20087;-80
2024/01/15 07:41:39;;;;;;;30.45;15.65;;;;;;;0.42;100.00;97381.38;5054701;28;20074;-79
2024/01/15 07:44:05;;;;;;;33.05;19.50;;;;;;;0.46;100.00;97383.78;5055104;28;20025;-79
2024/01/15 07:46:31;;;;;;;24.50;13.95;;;;;;;0.26;100.00;97355.63;5054756;28;20037;-80
2024/01/15 07:48:57;;;;;;;16.60;9.75;;;;;;;0.42;100.00;97382.25;5055046;28;20462;-80
2024/01/15 07:51:25;;;;;;;18.08;11.60;;;;;;;0.33;100.00;97345.94;5055402;28;20056;-80
2024/01/15 07:53:53;;;;;;;20.02;12.10;;;;;;;0.63;100.00;97392.44;5055791;28;20029;-79
2024/01/15 07:56:18;;;;;;;18.95;12.80;;;;;;;0.66;100.00;97395.72;5055393;28;20452;-79
2024/01/15 07:58:44;;;;;;;19.27;12.48;;;;;;;0.65;100.00;97406.88;5054290;28;20032;-80
2024/01/15 08:01:09;;;;;;;28.05;16.58;;;;;;;0.55;100.00;97374.88;5054389;28;20221;-80
2024/01/15 08:03:35;;;;;;;33.03;17.52;;;;;;;0.39;100.00;97353.38;5053073;28;20024;-80
2024/01/15 08:06:00;;;;;;;37.78;22.02;;;;;;;0.57;100.00;97360.25;5053690;28;20444;-80
2024/01/15 08:08:26;;;;;;;30.27;18.48;;;;;;;0.78;100.00;97391.78;5055753;28;20025;-79
2024/01/15 08:10:54;;;;;;;18.38;10.60;;;;;;;0.77;100.00;97395.25;5054466;28;20131;-79
2024/01/15 08:13:20;;;;;;;19.65;11.07;;;;;;;0.82;100.00;97384.81;5055674;28;20024;-79
2024/01/15 08:15:46;;;;;;;19.00;11.90;;;;;;;0.62;100.00;97352.38;5054680;28;20032;-80
2024/01/15 08:18:11;;;;;;;18.70;11.15;;;;;;;0.61;100.00;97353.28;5054210;28;20488;-80
2024/01/15 08:20:37;;;;;;;13.77;9.05;;;;;;;0.60;100.00;97365.25;5053367;28;20048;-80
2024/01/15 08:23:02;;;;;;;16.80;10.85;;;;;;;0.64;100.00;97361.66;5053074;28;20456;-79
2024/01/15 08:25:28;;;;;;;22.00;13.50;;;;;;;0.68;99.90;97373.44;5053288;28;20021;-80
2024/01/15 08:27:53;;;;;;;18.27;12.77;;;;;;;0.67;100.00;97361.50;5053177;28;20108;-80
2024/01/15 08:30:20;;;;;;;21.02;13.63;;;;;;;0.66;100.00;97359.84;5054062;28;20025;-80
2024/01/15 08:32:45;;;;;;;19.45;10.23;;;;;;;0.84;99.28;97398.38;5053018;28;20017;-79
2024/01/15 08:35:11;;;;;;;18.00;11.85;;;;;;;0.54;98.92;97346.75;5053796;28;20043;-79
2024/01/15 08:37:38;;;;;;;26.95;16.80;;;;;;;0.62;98.27;97355.75;5053184;28;20107;-79
2024/01/15 08:40:04;;;;;;;17.77;10.30;;;;;;;0.59;98.45;97358.47;5052984;28;20036;-79
2024/01/15 08:42:29;;;;;;;17.80;11.02;;;;;;;0.86;98.19;97399.97;5053817;28;20021;-79
2024/01/15 08:44:55;;;;;;;21.83;12.80;;;;;;;0.73;98.03;97356.13;5053053;28;20017;-79
2024/01/15 08:47:21;;;;;;;17.13;9.32;;;;;;;0.85;97.74;97387.25;5053761;28;20112;-79
2024/01/15 08:49:46;;;;;;;13.13;7.60;;;;;;;0.86;97.11;97396.59;5061928;28;20330;-79
2024/01/15 08:52:12;;;;;;;17.05;8.63;;;;;;;0.82;97.20;97389.94;5070934;28;20032;-79
2024/01/15 08:54:37;;;;;;;14.60;8.95;;;;;;;0.71;97.04;97367.31;5069887;28;20040;-79
2024/01/15 08:57:03;;;;;;;16.13;10.07;;;;;;;0.79;97.18;97361.88;5069004;28;20021;-79
2024/01/15 08:59:28;;;;;;;14.38;7.82;;;;;;;0.75;97.00;97363.72;5061647;28;20020;-79
2024/01/15 09:01:56;;;;;;;15.63;8.63;;;;;;;0.86;96.44;97378.66;5063705;28;20044;-79
2024/01/15 09:04:24;;;;;;;14.35;7.63;;;;;;;0.70;97.24;97366.50;5052874;28;20053;-80
2024/01/15 09:06:49;;;;;;;16.42;8.52;;;;;;;0.80;97.42;97374.63;5053173;28;20052;-80
2024/01/15 09:09:15;;;;;;;16.02;8.80;;;;;;;0.68;97.53;97344.44;5052829;28;20083;-79
2024/01/15 09:11:45;;;;;;;14.48;9.38;;;;;;;0.83;97.02;97374.47;5052953;28;20025;-80
2024/01/15 09:14:10;;;;;;;17.23;9.43;;;;;;;0.80;97.16;97371.22;5065745;28;20028;-80
2024/01/15 09:16:36;;;;;;;15.63;9.18;;;;;;;0.74;97.20;97359.53;5076411;28;20023;-80
2024/01/15 09:19:03;;;;;;;15.80;8.75;;;;;;;0.87;97.28;97370.88;5079670;28;20103;-80
2024/01/15 09:21:28;;;;;;;16.65;8.68;;;;;;;0.77;96.32;97338.06;5062733;28;20032;-80
2024/01/15 09:23:54;;;;;;;13.00;7.85;;;;;;;0.82;96.41;97343.81;5058344;28;20017;-80
2024/01/15 09:26:19;;;;;;;19.58;10.63;;;;;;;1.10;95.97;97380.13;5066837;28;20491;-80
2024/01/15 09:28:44;;;;;;;17.10;9.73;;;;;;;1.15;95.99;97388.44;5066381;28;20029;-80
2024/01/15 09:31:11;;;;;;;20.77;10.85;;;;;;;0.88;94.98;97340.97;5067484;28;20016;-79
2024/01/15 09:33:36;;;;;;;31.00;14.85;;;;;;;1.22;95.06;97384.72;5065077;28;20412;-80
2024/01/15 09:36:03;;;;;;;24.77;11.30;;;;;;;1.09;94.89;97354.53;5070779;28;20084;-79
2024/01/15 09:38:31;;;;;;;34.72;13.75;;;;;;;1.38;94.71;97384.00;5076411;28;20039;-80
2024/01/15 09:40:57;;;;;;;38.85;17.13;;;;;;;1.17;94.21;97352.47;5078642;28;20112;-79
2024/01/15 09:43:23;;;;;;;22.55;11.68;;;;;;;1.45;93.86;97398.22;5077237;28;20099;-80
2024/01/15 09:45:49;;;;;;;15.82;9.20;;;;;;;1.15;93.62;97331.22;5079628;28;20017;-79
2024/01/15 09:48:16;;;;;;;13.80;8.23;;;;;;;1.50;92.82;97376.56;5083857;28;20024;-79
2024/01/15 09:50:41;;;;;;;16.00;7.90;;;;;;;1.55;92.11;97385.78;5085035;28;20166;-80
2024/01/15 09:53:09;;;;;;;17.02;7.95;;;;;;;1.42;92.24;97368.38;5085408;28;20029;-80
2024/01/15 09:55:36;;;;;;;13.73;7.25;;;;;;;1.47;91.63;97371.56;5084279;28;20021;-79
2024/01/15 09:58:02;;;;;;;13.02;6.88;;;;;;;1.49;91.39;97380.03;5086072;28;20021;-79
2024/01/15 10:00:29;;;;;;;13.48;6.78;;;;;;;1.65;91.27;97398.13;5084991;28;20029;-80
2024/01/15 10:02:56;;;;;;;11.55;6.72;;;;;;;1.52;91.29;97373.94;5086483;28;20325;-79
2024/01/15 10:05:21;;;;;;;14.07;6.95;;;;;;;1.55;90.65;97383.22;5086693;28;20024;-79
2024/01/15 10:07:48;;;;;;;13.73;7.05;;;;;;;1.30;91.31;97320.22;5085246;28;20046;-79
2024/01/15 10:10:13;;;;;;;11.80;7.30;;;;;;;1.24;91.10;97331.63;5085115;28;20036;-79
2024/01/15 10:12:39;;;;;;;15.93;7.28;;;;;;;1.31;90.78;97357.00;5083860;28;20046;-80
2024/01/15 10:15:05;;;;;;;11.32;7.28;;;;;;;1.18;91.39;97349.00;5085257;28;20344;-80
2024/01/15 10:17:31;;;;;;;11.73;6.22;;;;;;;1.15;91.34;97328.66;5095458;28;20043;-80
2024/01/15 10:19:57;;;;;;;14.35;7.68;;;;;;;1.32;91.48;97354.34;5093907;28;20036;-79
2024/01/15 10:22:23;;;;;;;12.57;6.75;;;;;;;1.18;91.52;97331.06;5094976;28;20028;-79
2024/01/15 10:24:49;;;;;;;14.93;7.68;;;;;;;1.36;91.31;97363.56;5093421;28;20032;-80
2024/01/15 10:27:14;;;;;;;14.10;6.43;;;;;;;1.32;91.00;97353.50;5093927;28;20032;-79
2024/01/15 10:29:41;;;;;;;13.88;7.40;;;;;;;1.43;91.23;97375.22;5093533;28;20032;-80
2024/01/15 10:32:10;;;;;;;20.02;8.23;;;;;;;1.40;91.52;97375.34;5093867;28;20032;-80
2024/01/15 10:34:45;;;;;;;13.77;7.28;;;;;;;1.59;92.05;97356.50;5093749;28;20534;-80
2024/01/15 10:37:11;;;;;;;11.32;6.53;;;;;;;1.45;91.59;97332.34;5093622;28;20181;-80
2024/01/15 10:39:36;;;;;;;10.82;6.30;;;;;;;1.83;91.28;97355.34;5093270;28;20523;-80
2024/01/15 10:42:03;;;;;;;14.63;6.20;;;;;;;1.61;90.36;97337.59;5094902;28;20024;-79
2024/01/15 10:44:29;;;;;;;13.80;7.07;;;;;;;1.75;90.05;97355.72;5076822;28;20043;-80
2024/01/15 10:46:56;;;;;;;13.45;6.43;;;;;;;1.43;89.46;97311.09;5095633;28;20044;-80
2024/01/15 10:49:24;;;;;;;13.18;7.43;;;;;;;1.43;89.43;97326.47;5084064;28;20037;-79
2024/01/15 10:51:51;;;;;;;10.65;6.43;;;;;;;1.65;89.58;97367.34;5088592;28;20058;-81
2024/01/15 10:54:18;;;;;;;14.30;7.82;;;;;;;1.54;89.55;97341.34;5087862;28;20468;-80
2024/01/15 10:56:46;;;;;;;10.80;6.63;;;;;;;1.27;89.67;97296.50;5083241;28;20024;-80
2024/01/15 10:59:13;;;;;;;12.15;6.65;;;;;;;1.44;89.35;97325.56;5076027;28;20084;-80
2024/01/15 11:01:39;;;;;;;14.02;8.15;;;;;;;1.61;89.77;97344.47;5074875;28;20020;-80
2024/01/15 11:04:05;;;;;;;13.00;6.93;;;;;;;1.54;89.56;97318.25;5074742;28;20021;-80
2024/01/15 11:06:42;;;;;;;9.57;5.95;;;;;;;1.86;89.37;97370.63;5074407;28;20027;-81
2024/01/15 11:09:08;;;;;;;15.65;6.72;;;;;;;1.87;88.88;97374.00;5074216;28;20361;-81
2024/01/15 11:11:36;;;;;;;13.40;6.88;;;;;;;1.63;88.61;97322.13;5074076;28;20328;-81
2024/01/15 11:14:02;;;;;;;13.65;7.30;;;;;;;1.77;88.73;97335.13;5068150;28;20352;-80